Time;durP1;ratioP1;P1;durP2;ratioP2;P2;SDS_P1;SDS_P2;PMS_P1;PMS_P2;Temp;Humidity;BMP_temperature;BMP_pressure;BME280_temperature;BME280_humidity;BME280_pressure;Samples;Min_cycle;Max_cycle;Signal;HPM_P1;HPM_P2
2022/12/20 06:03:33;;;;;;;24.23;12.93;;;4.50;99.90;;;;;;4911806;23;20052;-75
2022/12/20 06:06:01;;;;;;;24.05;13.30;;;4.40;99.90;;;;;;4870908;29;20068;-75
2022/12/20 06:08:29;;;;;;;22.05;12.68;;;4.40;99.90;;;;;;4870742;29;20105;-77
2022/12/20 06:10:57;;;;;;;23.90;13.35;;;4.40;99.90;;;;;;4870167;29;20079;-76
2022/12/20 06:13:23;;;;;;;24.13;12.18;;;4.40;99.90;;;;;;4870197;29;20188;-77
2022/12/20 06:15:52;;;;;;;21.00;12.32;;;4.40;99.90;;;;;;4871154;29;20033;-76
2022/12/20 06:18:21;;;;;;;20.45;11.77;;;4.40;99.90;;;;;;4874397;29;20021;-76
2022/12/20 06:20:54;;;;;;;24.73;12.85;;;4.50;99.90;;;;;;4873206;29;20243;-75
2022/12/20 06:23:23;;;;;;;26.90;12.98;;;4.50;99.90;;;;;;4873925;29;20255;-75
2022/12/20 06:25:57;;;;;;;23.38;12.90;;;4.50;99.90;;;;;;4873930;29;20345;-76
2022/12/20 06:28:25;;;;;;;25.35;12.88;;;4.60;99.90;;;;;;4889744;29;20078;-75
2022/12/20 06:30:54;;;;;;;21.83;12.18;;;4.60;99.90;;;;;;4873418;29;20314;-76
2022/12/20 06:33:33;;;;;;;22.45;12.60;;;4.60;99.90;;;;;;4873973;29;20041;-75
2022/12/20 06:36:02;;;;;;;20.60;11.82;;;4.60;99.90;;;;;;4889959;29;20055;-75
2022/12/20 06:38:28;;;;;;;20.30;12.55;;;4.60;99.90;;;;;;4890676;29;20040;-75
2022/12/20 06:40:54;;;;;;;19.88;12.65;;;4.60;99.90;;;;;;4890130;29;20029;-75
2022/12/20 06:43:23;;;;;;;21.35;13.02;;;4.60;99.90;;;;;;4873822;29;20027;-77
2022/12/20 06:45:52;;;;;;;20.95;12.60;;;4.60;99.90;;;;;;4890113;29;20061;-74
2022/12/20 06:48:20;;;;;;;24.20;12.55;;;4.60;99.90;;;;;;4873788;29;20084;-74
2022/12/20 06:50:50;;;;;;;23.88;13.25;;;4.50;99.90;;;;;;4872990;29;20032;-73
2022/12/20 06:53:17;;;;;;;22.98;13.32;;;4.60;99.90;;;;;;4873406;29;20057;-75
2022/12/20 06:55:42;;;;;;;21.67;12.65;;;4.70;99.90;;;;;;4889524;29;20037;-74
2022/12/20 06:58:09;;;;;;;23.60;12.95;;;4.70;99.90;;;;;;4872079;29;20025;-74
2022/12/20 07:00:36;;;;;;;23.80;13.13;;;4.70;99.90;;;;;;4873538;29;20033;-72
2022/12/20 07:03:02;;;;;;;23.50;13.07;;;4.70;99.90;;;;;;4888393;29;20660;-74
2022/12/20 07:05:28;;;;;;;22.52;13.00;;;4.70;99.90;;;;;;4868556;29;20295;-73
2022/12/20 07:07:53;;;;;;;21.02;12.30;;;4.60;99.90;;;;;;4900811;29;20036;-73
2022/12/20 07:10:19;;;;;;;23.15;12.88;;;4.60;99.90;;;;;;4897899;29;20037;-73
2022/12/20 07:12:45;;;;;;;22.98;12.77;;;4.60;99.90;;;;;;4889276;29;20072;-75
2022/12/20 07:15:11;;;;;;;25.92;13.00;;;4.60;99.90;;;;;;4895138;29;20032;-74
2022/12/20 07:17:36;;;;;;;24.42;12.80;;;4.60;99.90;;;;;;4907977;29;20029;-73
2022/12/20 07:20:02;;;;;;;23.00;13.45;;;4.60;99.90;;;;;;4908090;29;20058;-73
2022/12/20 07:22:28;;;;;;;22.05;11.95;;;4.60;99.90;;;;;;4908453;29;20338;-74
2022/12/20 07:24:54;;;;;;;20.40;12.10;;;4.60;99.90;;;;;;4891224;29;20040;-72
2022/12/20 07:27:20;;;;;;;22.23;11.90;;;4.70;99.90;;;;;;4908350;29;20044;-73
2022/12/20 07:29:50;;;;;;;18.13;11.60;;;4.70;99.90;;;;;;4907498;29;20044;-74
2022/12/20 07:32:15;;;;;;;21.98;11.88;;;4.60;99.90;;;;;;4902134;29;20326;-75
2022/12/20 07:34:44;;;;;;;20.70;12.07;;;4.60;99.90;;;;;;4889007;29;20044;-74
2022/12/20 07:37:13;;;;;;;19.80;12.00;;;4.70;99.90;;;;;;4888827;29;20033;-75
2022/12/20 07:39:41;;;;;;;18.52;11.50;;;4.70;99.90;;;;;;4889021;29;20263;-74
2022/12/20 07:42:11;;;;;;;19.98;12.00;;;4.70;99.90;;;;;;4888975;29;20322;-74
2022/12/20 07:44:47;;;;;;;22.08;12.00;;;4.80;99.90;;;;;;4871910;29;20382;-73
2022/12/20 07:47:13;;;;;;;19.98;11.32;;;4.80;99.90;;;;;;4888893;29;20053;-77
2022/12/20 07:49:41;;;;;;;19.73;11.73;;;4.80;99.90;;;;;;4888780;29;20033;-74
2022/12/20 07:52:09;;;;;;;21.67;11.65;;;4.90;99.90;;;;;;4888975;29;20069;-74
2022/12/20 07:54:41;;;;;;;19.63;11.25;;;5.00;99.90;;;;;;4889187;29;20033;-75
2022/12/20 07:57:14;;;;;;;17.60;10.35;;;5.00;99.90;;;;;;4872148;29;20084;-75
2022/12/20 07:59:45;;;;;;;20.45;11.65;;;5.10;99.90;;;;;;4888987;29;20073;-75
2022/12/20 08:02:17;;;;;;;17.63;10.80;;;5.10;99.90;;;;;;4888588;29;20112;-74
2022/12/20 08:04:43;;;;;;;17.10;10.68;;;5.20;99.90;;;;;;4888924;29;20322;-75
2022/12/20 08:07:09;;;;;;;16.50;9.85;;;5.20;99.90;;;;;;4888780;29;20072;-74
2022/12/20 08:09:41;;;;;;;17.92;10.68;;;5.30;99.90;;;;;;4892225;29;20250;-74
2022/12/20 08:12:09;;;;;;;18.52;10.70;;;5.30;99.90;;;;;;4907866;29;20033;-74
2022/12/20 08:14:36;;;;;;;18.35;10.43;;;5.40;99.90;;;;;;4907110;29;20099;-74
2022/12/20 08:17:04;;;;;;;18.40;10.70;;;5.40;99.90;;;;;;4907006;29;20338;-74
2022/12/20 08:19:33;;;;;;;18.40;10.68;;;5.50;99.90;;;;;;4907528;29;20265;-74
2022/12/20 08:21:59;;;;;;;16.10;9.65;;;5.50;99.90;;;;;;4906853;29;20040;-76
2022/12/20 08:24:24;;;;;;;16.38;10.65;;;5.60;99.90;;;;;;4906978;29;20028;-75
2022/12/20 08:26:53;;;;;;;17.67;10.05;;;5.70;99.90;;;;;;4906976;29;20232;-75
2022/12/20 08:29:19;;;;;;;18.95;11.50;;;5.70;99.90;;;;;;4907470;29;20274;-74
2022/12/20 08:31:45;;;;;;;16.00;10.05;;;5.70;99.90;;;;;;4875869;29;20037;-74
2022/12/20 08:34:11;;;;;;;18.08;10.88;;;5.70;99.90;;;;;;4896929;29;20283;-75
2022/12/20 08:36:37;;;;;;;19.10;10.27;;;5.70;99.90;;;;;;4902981;29;20219;-75
2022/12/20 08:39:06;;;;;;;18.30;9.85;;;5.70;99.90;;;;;;4887545;29;20318;-75
2022/12/20 08:41:33;;;;;;;20.17;12.02;;;5.70;99.90;;;;;;4888353;29;20033;-75
2022/12/20 08:43:59;;;;;;;20.20;10.40;;;5.80;99.90;;;;;;4887653;29;20041;-75
2022/12/20 08:46:25;;;;;;;16.45;9.88;;;5.90;99.90;;;;;;4888224;29;20331;-75
2022/12/20 08:48:51;;;;;;;16.38;9.07;;;6.00;99.90;;;;;;4882740;29;20108;-74
2022/12/20 08:51:22;;;;;;;16.42;9.25;;;6.10;99.90;;;;;;4869314;29;20315;-75
2022/12/20 08:53:48;;;;;;;16.58;9.20;;;6.20;99.90;;;;;;4869030;29;20044;-75
2022/12/20 08:56:16;;;;;;;18.67;10.45;;;6.20;99.90;;;;;;4869534;29;20037;-75
2022/12/20 08:58:42;;;;;;;15.35;9.50;;;6.30;99.90;;;;;;4869446;29;20069;-75
2022/12/20 09:01:12;;;;;;;14.80;9.57;;;6.30;99.90;;;;;;4869507;29;20054;-74
2022/12/20 09:03:41;;;;;;;17.70;10.80;;;6.40;99.90;;;;;;4869037;29;20089;-75
2022/12/20 09:06:14;;;;;;;16.95;9.57;;;6.40;99.90;;;;;;4852167;29;20041;-75
2022/12/20 09:08:40;;;;;;;16.83;9.93;;;6.60;99.90;;;;;;4869635;29;20045;-75
2022/12/20 09:11:08;;;;;;;17.13;10.15;;;6.50;99.90;;;;;;4884998;29;20119;-74
2022/12/20 09:13:34;;;;;;;17.17;9.80;;;6.50;99.90;;;;;;4887936;29;20065;-75
2022/12/20 09:16:05;;;;;;;16.25;9.30;;;6.50;99.90;;;;;;4870870;29;20137;-75
2022/12/20 09:18:31;;;;;;;15.15;9.60;;;6.50;99.90;;;;;;4871308;29;20089;-75
2022/12/20 09:21:06;;;;;;;18.15;9.52;;;6.50;99.90;;;;;;4887182;29;20038;-75
2022/12/20 09:23:33;;;;;;;15.90;10.57;;;6.50;99.90;;;;;;4888003;29;20057;-75
2022/12/20 09:26:09;;;;;;;17.38;10.73;;;6.50;99.90;;;;;;4877736;29;20261;-76
2022/12/20 09:28:34;;;;;;;19.45;10.43;;;6.60;99.90;;;;;;4852812;29;20041;-75
2022/12/20 09:31:02;;;;;;;17.65;10.23;;;6.60;99.90;;;;;;4868949;29;20105;-75
2022/12/20 09:33:29;;;;;;;18.08;11.05;;;6.60;99.90;;;;;;4853109;29;20097;-75
2022/12/20 09:36:02;;;;;;;17.60;10.55;;;6.60;99.90;;;;;;4869136;29;20037;-76
2022/12/20 09:38:31;;;;;;;15.90;10.25;;;6.60;99.90;;;;;;4871748;29;20049;-74
2022/12/20 09:41:02;;;;;;;25.17;14.40;;;6.60;99.90;;;;;;4881768;29;20056;-75
2022/12/20 09:43:28;;;;;;;18.80;11.63;;;6.60;99.90;;;;;;4875035;29;20037;-75
2022/12/20 09:45:58;;;;;;;17.65;10.57;;;6.70;99.90;;;;;;4873163;29;20033;-76
2022/12/20 09:48:34;;;;;;;18.10;10.52;;;6.70;99.90;;;;;;4891466;29;20045;-75
2022/12/20 09:51:06;;;;;;;16.55;10.32;;;6.70;99.90;;;;;;4885224;29;20072;-75
2022/12/20 09:53:50;;;;;;;18.30;10.23;;;6.80;99.90;;;;;;4892765;29;20051;-76
2022/12/20 09:56:29;;;;;;;19.08;11.15;;;6.80;99.90;;;;;;4891632;29;20037;-75
2022/12/20 09:58:57;;;;;;;19.00;11.05;;;6.90;99.90;;;;;;4874824;29;20104;-77
2022/12/20 10:01:24;;;;;;;;;;;6.90;99.90;;;;;;4891799;29;20029;-76
2022/12/20 10:03:55;;;;;;;14.20;9.27;;;7.10;99.90;;;;;;4891301;29;20165;-75
2022/12/20 10:06:51;;;;;;;17.80;9.63;;;7.10;99.90;;;;;;4891304;29;20076;-76
2022/12/20 10:09:40;;;;;;;18.52;9.90;;;7.30;99.90;;;;;;4876744;29;20044;-74
2022/12/20 10:12:43;;;;;;;17.13;9.25;;;7.30;99.90;;;;;;4895944;29;20032;-74
2022/12/20 10:15:33;;;;;;;26.52;16.23;;;7.40;99.90;;;;;;4898970;29;20041;-74
2022/12/20 10:18:32;;;;;;;16.17;10.13;;;7.30;99.90;;;;;;4905563;29;20029;-74
2022/12/20 10:21:09;;;;;;;17.95;9.73;;;7.40;99.90;;;;;;4902095;29;20033;-74
2022/12/20 10:24:12;;;;;;;17.13;9.90;;;7.50;99.90;;;;;;4890972;29;20045;-74
2022/12/20 10:26:38;;;;;;;16.25;9.18;;;7.60;99.90;;;;;;4797140;30;20058;-73
2022/12/20 10:29:03;;;;;;;15.75;9.48;;;7.70;99.90;;;;;;4811154;29;20270;-72
2022/12/20 10:31:29;;;;;;;15.65;9.00;;;7.70;99.90;;;;;;4905139;29;20056;-74
2022/12/20 10:33:56;;;;;;;15.48;8.55;;;7.80;99.90;;;;;;4892136;29;20112;-74
2022/12/20 10:36:32;;;;;;;16.73;9.73;;;7.90;99.90;;;;;;4890639;29;20060;-74
2022/12/20 10:39:08;;;;;;;21.48;15.02;;;7.90;99.90;;;;;;4876775;29;20033;-74
2022/12/20 10:41:41;;;;;;;18.67;10.57;;;7.90;99.90;;;;;;4872049;29;20025;-74
2022/12/20 10:44:18;;;;;;;15.95;10.05;;;7.90;99.90;;;;;;4871281;29;20033;-73
2022/12/20 10:46:52;;;;;;;18.73;9.80;;;7.70;99.90;;;;;;4883128;29;20123;-74
2022/12/20 10:49:32;;;;;;;14.32;9.20;;;7.70;99.90;;;;;;4908774;29;20317;-73
2022/12/20 10:52:08;;;;;;;16.40;9.52;;;7.60;99.90;;;;;;4889757;29;20033;-75
2022/12/20 10:54:36;;;;;;;16.48;9.93;;;7.60;99.90;;;;;;4890224;29;20033;-75
2022/12/20 10:57:24;;;;;;;15.85;9.25;;;7.60;99.90;;;;;;4872919;29;20268;-75
2022/12/20 11:00:01;;;;;;;14.50;8.98;;;7.60;99.90;;;;;;4889493;29;20061;-76
2022/12/20 11:02:36;;;;;;;14.25;8.70;;;7.60;99.90;;;;;;4888032;29;20060;-74
2022/12/20 11:05:11;;;;;;;12.60;8.82;;;7.60;99.90;;;;;;4889270;29;20307;-74
2022/12/20 11:07:58;;;;;;;15.95;9.43;;;7.60;99.90;;;;;;4889881;29;20100;-74
2022/12/20 11:10:27;;;;;;;14.18;8.18;;;7.70;99.90;;;;;;4888478;29;20036;-74
2022/12/20 11:12:57;;;;;;;13.55;8.20;;;7.90;99.90;;;;;;4889445;29;20043;-76
2022/12/20 11:15:26;;;;;;;13.05;8.32;;;7.90;99.90;;;;;;4889592;29;20028;-75
2022/12/20 11:18:08;;;;;;;15.13;8.57;;;8.00;99.90;;;;;;4872630;29;20071;-75
2022/12/20 11:20:46;;;;;;;13.45;8.35;;;8.00;99.90;;;;;;4893460;29;20102;-75
2022/12/20 11:23:30;;;;;;;;;;;8.20;99.90;;;;;;4908466;29;20028;-77
2022/12/20 11:26:15;;;;;;;12.52;8.18;;;8.20;99.90;;;;;;4891113;29;19907;-75
2022/12/20 11:29:07;;;;;;;15.52;8.90;;;8.30;99.90;;;;;;4870764;29;20227;-75
2022/12/20 11:32:07;;;;;;;15.15;9.18;;;8.40;99.90;;;;;;4844569;29;20058;-75
2022/12/20 11:34:49;;;;;;;14.45;8.88;;;8.50;99.90;;;;;;4857198;29;20042;-75
2022/12/20 11:37:26;;;;;;;17.45;10.10;;;8.50;99.90;;;;;;4875622;29;20112;-75
2022/12/20 11:40:17;;;;;;;21.23;13.60;;;8.50;99.90;;;;;;4871103;29;20068;-76
2022/12/20 11:42:51;;;;;;;16.42;11.55;;;8.50;99.90;;;;;;4888811;29;20092;-76
2022/12/20 11:45:41;;;;;;;15.07;8.98;;;8.50;99.90;;;;;;4888861;29;20034;-77
2022/12/20 11:48:34;;;;;;;13.95;8.77;;;8.50;99.90;;;;;;4888477;29;20081;-75
2022/12/20 11:51:04;;;;;;;14.95;8.55;;;8.50;99.90;;;;;;4888628;29;20314;-76
2022/12/20 11:53:52;;;;;;;15.10;8.68;;;8.40;99.90;;;;;;4889172;29;20112;-75
2022/12/20 11:56:24;;;;;;;14.63;8.75;;;8.20;99.90;;;;;;4888644;29;20039;-75
2022/12/20 11:58:58;;;;;;;15.73;9.18;;;8.10;99.90;;;;;;4888960;29;20064;-75
2022/12/20 12:01:49;;;;;;;15.02;9.35;;;8.20;99.90;;;;;;4888943;29;20029;-75
2022/12/20 12:04:24;;;;;;;12.90;8.30;;;8.20;99.90;;;;;;4888155;29;20048;-76
2022/12/20 12:07:03;;;;;;;15.27;8.95;;;8.20;99.90;;;;;;4888774;29;20064;-76
2022/12/20 12:09:55;;;;;;;14.13;8.20;;;8.20;99.90;;;;;;4888617;29;20029;-75
2022/12/20 12:12:39;;;;;;;15.23;8.50;;;8.20;99.90;;;;;;4888640;29;20040;-74
2022/12/20 12:15:17;;;;;;;17.95;9.10;;;8.30;99.90;;;;;;4887933;29;20070;-76
2022/12/20 12:17:59;;;;;;;16.23;8.57;;;8.40;99.90;;;;;;4888587;29;20036;-75
2022/12/20 12:20:58;;;;;;;15.82;9.02;;;8.40;99.90;;;;;;4888413;29;20045;-74
2022/12/20 12:23:55;;;;;;;13.75;8.13;;;8.40;99.90;;;;;;4888505;29;20032;-75
2022/12/20 12:26:28;;;;;;;17.02;10.32;;;8.40;99.90;;;;;;4868972;29;20066;-77
2022/12/20 12:29:01;;;;;;;16.15;9.02;;;8.40;99.90;;;;;;4870058;29;20295;-75
2022/12/20 12:31:32;;;;;;;16.35;9.23;;;8.40;99.90;;;;;;4869607;29;20065;-78
2022/12/20 12:34:04;;;;;;;15.82;9.15;;;8.40;99.90;;;;;;4891363;29;20036;-75
2022/12/20 12:36:59;;;;;;;14.60;8.32;;;8.30;99.90;;;;;;4907222;29;20107;-75
2022/12/20 12:39:55;;;;;;;14.88;8.48;;;8.20;99.90;;;;;;4907143;29;20029;-74
2022/12/20 12:42:45;;;;;;;14.23;7.82;;;8.20;99.90;;;;;;4906835;29;20033;-76
2022/12/20 12:45:36;;;;;;;12.13;7.82;;;8.30;99.90;;;;;;4890108;29;20108;-76
2022/12/20 12:48:06;;;;;;;14.82;7.68;;;8.40;99.90;;;;;;4906646;29;20028;-75
2022/12/20 12:50:45;;;;;;;13.35;7.82;;;8.50;99.90;;;;;;4890026;29;20051;-75
2022/12/20 12:53:35;;;;;;;15.93;7.82;;;8.70;99.90;;;;;;4906185;29;20107;-75
2022/12/20 12:56:24;;;;;;;14.95;8.35;;;8.70;99.90;;;;;;4906164;29;20104;-75
2022/12/20 12:59:05;;;;;;;15.35;8.38;;;8.90;99.90;;;;;;4897969;29;20033;-77
2022/12/20 13:01:50;;;;;;;15.10;8.00;;;8.90;99.90;;;;;;4888728;29;20315;-75
2022/12/20 13:04:18;;;;;;;12.35;8.15;;;8.90;99.90;;;;;;4887664;29;20061;-74
2022/12/20 13:06:47;;;;;;;;;;;8.90;99.90;;;;;;4887471;29;20040;-75
2022/12/20 13:09:25;;;;;;;13.43;8.45;;;8.90;99.90;;;;;;4887592;29;20245;-75
2022/12/20 13:11:55;;;;;;;17.83;8.52;;;8.80;99.90;;;;;;4887004;29;20044;-75
2022/12/20 13:14:24;;;;;;;12.77;7.78;;;8.70;99.90;;;;;;4870227;29;20057;-74
2022/12/20 13:17:13;;;;;;;14.95;7.65;;;8.70;99.90;;;;;;4887714;29;20107;-75
2022/12/20 13:19:50;;;;;;;13.52;7.50;;;8.60;99.90;;;;;;4887534;29;20097;-75
2022/12/20 13:22:21;;;;;;;14.02;8.05;;;8.70;99.90;;;;;;4887330;29;20096;-74
2022/12/20 13:25:01;;;;;;;15.13;9.07;;;8.80;99.90;;;;;;4888033;29;20037;-77
2022/12/20 13:27:32;;;;;;;17.17;8.65;;;8.80;99.90;;;;;;4869872;29;20026;-74
2022/12/20 13:30:10;;;;;;;13.85;8.75;;;8.70;99.90;;;;;;4872487;29;20234;-74
2022/12/20 13:32:48;;;;;;;15.50;9.05;;;8.70;99.90;;;;;;4885748;29;20041;-76
2022/12/20 13:35:26;;;;;;;14.60;8.10;;;8.70;99.90;;;;;;4890708;29;20044;-75
2022/12/20 13:38:04;;;;;;;14.75;9.05;;;8.60;99.90;;;;;;4891584;29;20516;-75
2022/12/20 13:40:59;;;;;;;14.88;8.40;;;8.60;99.90;;;;;;4891504;29;20041;-74
2022/12/20 13:43:29;;;;;;;15.15;9.60;;;8.50;99.90;;;;;;4891150;29;20108;-75
2022/12/20 13:46:08;;;;;;;15.68;9.75;;;8.50;99.90;;;;;;4874810;29;20037;-75
2022/12/20 13:48:51;;;;;;;14.82;9.50;;;8.40;99.90;;;;;;4891031;29;20230;-75
2022/12/20 13:51:20;;;;;;;16.65;9.88;;;8.40;99.90;;;;;;4889488;29;20037;-75
2022/12/20 13:53:59;;;;;;;14.60;8.82;;;8.50;99.90;;;;;;4891226;29;20057;-75
2022/12/20 13:56:28;;;;;;;16.60;8.75;;;8.40;99.90;;;;;;4891639;29;20096;-75
2022/12/20 13:59:04;;;;;;;14.93;8.98;;;8.50;99.90;;;;;;4891130;29;20041;-75
2022/12/20 14:01:32;;;;;;;18.38;10.63;;;8.50;99.90;;;;;;4889776;29;20029;-75
2022/12/20 14:03:57;;;;;;;18.87;9.63;;;8.50;99.90;;;;;;4891522;29;20207;-75
2022/12/20 14:06:25;;;;;;;15.73;9.68;;;8.50;99.90;;;;;;4890915;29;20092;-75
2022/12/20 14:08:51;;;;;;;17.20;8.85;;;8.50;99.90;;;;;;4891204;29;20161;-75
2022/12/20 14:11:25;;;;;;;14.82;8.45;;;8.50;99.90;;;;;;4889983;29;20037;-75
2022/12/20 14:14:00;;;;;;;16.30;8.45;;;8.60;99.90;;;;;;4891156;29;20037;-75
2022/12/20 14:16:29;;;;;;;15.50;8.90;;;8.60;99.90;;;;;;4890684;29;20037;-75
2022/12/20 14:19:05;;;;;;;14.90;8.95;;;8.60;99.90;;;;;;4890756;29;20045;-75
2022/12/20 14:21:36;;;;;;;13.13;8.40;;;8.60;99.90;;;;;;4874184;29;20060;-75
2022/12/20 14:24:03;;;;;;;29.08;18.98;;;8.60;99.90;;;;;;4890293;29;20314;-75
2022/12/20 14:26:43;;;;;;;18.42;9.85;;;8.60;99.90;;;;;;4890532;29;20112;-75
2022/12/20 14:29:16;;;;;;;13.55;8.45;;;8.70;99.90;;;;;;4889974;29;20084;-75
2022/12/20 14:31:45;;;;;;;17.20;8.85;;;8.70;99.90;;;;;;4890729;29;20045;-75
2022/12/20 14:34:15;;;;;;;14.05;9.32;;;8.60;99.90;;;;;;4890175;29;20119;-75
2022/12/20 14:36:48;;;;;;;15.63;8.90;;;8.60;99.90;;;;;;4890754;29;20029;-76
2022/12/20 14:39:29;;;;;;;13.45;8.63;;;8.50;99.90;;;;;;4891858;29;20052;-77
2022/12/20 14:42:07;;;;;;;13.38;7.88;;;8.40;99.90;;;;;;4859169;29;20047;-76
2022/12/20 14:44:33;;;;;;;13.50;8.15;;;8.40;99.90;;;;;;4890191;29;20037;-75
2022/12/20 14:47:11;;;;;;;13.38;8.10;;;8.40;99.90;;;;;;4873385;29;20252;-75
2022/12/20 14:49:38;;;;;;;12.02;7.85;;;8.40;99.90;;;;;;4890234;29;20069;-74
2022/12/20 14:52:10;;;;;;;12.23;7.72;;;8.30;99.90;;;;;;4889816;29;20255;-75
2022/12/20 14:54:48;;;;;;;12.95;8.07;;;8.30;99.90;;;;;;4890389;29;20269;-74
2022/12/20 14:57:44;;;;;;;14.43;8.50;;;8.30;99.90;;;;;;4889913;29;20045;-74
2022/12/20 15:00:21;;;;;;;12.52;8.13;;;8.10;99.90;;;;;;4888580;29;20052;-74
2022/12/20 15:03:00;;;;;;;14.30;7.90;;;8.20;99.90;;;;;;4863672;29;20315;-74
2022/12/20 15:05:36;;;;;;;15.98;8.30;;;8.10;99.90;;;;;;4870773;29;20048;-74
2022/12/20 15:08:20;;;;;;;16.38;8.65;;;8.10;99.90;;;;;;4871409;29;20065;-74
2022/12/20 15:10:49;;;;;;;14.25;8.90;;;8.00;99.90;;;;;;4870929;29;20261;-74
2022/12/20 15:13:17;;;;;;;14.70;8.93;;;7.90;99.90;;;;;;4870997;29;20080;-74
2022/12/20 15:15:43;;;;;;;14.80;9.40;;;7.90;99.90;;;;;;4871161;29;20049;-74
2022/12/20 15:18:13;;;;;;;15.20;9.68;;;7.80;99.90;;;;;;4870866;29;20038;-74
2022/12/20 15:20:41;;;;;;;18.05;10.07;;;7.80;99.90;;;;;;4871300;29;20041;-74
2022/12/20 15:23:19;;;;;;;13.43;8.95;;;7.80;99.90;;;;;;4870807;29;20064;-74
2022/12/20 15:25:45;;;;;;;12.02;7.85;;;7.70;99.90;;;;;;4870990;29;20033;-74
2022/12/20 15:28:16;;;;;;;12.45;8.02;;;7.70;99.90;;;;;;4870635;29;20232;-73
2022/12/20 15:30:42;;;;;;;14.15;8.27;;;7.70;99.90;;;;;;4871158;29;20101;-74
2022/12/20 15:33:17;;;;;;;16.13;8.85;;;7.70;99.90;;;;;;4874886;29;20251;-73
2022/12/20 15:35:46;;;;;;;18.25;10.88;;;7.80;99.90;;;;;;4889615;29;20152;-74
2022/12/20 15:38:18;;;;;;;22.75;14.57;;;7.80;99.90;;;;;;4888903;29;20259;-73
2022/12/20 15:40:48;;;;;;;17.02;10.55;;;7.80;99.90;;;;;;4888401;29;20045;-74
2022/12/20 15:43:19;;;;;;;19.08;9.45;;;7.70;99.90;;;;;;4888869;29;20108;-74
2022/12/20 15:45:49;;;;;;;12.43;8.57;;;7.80;99.90;;;;;;4889402;29;20080;-74
2022/12/20 15:48:18;;;;;;;14.20;8.45;;;7.70;99.90;;;;;;4888736;29;20032;-74
2022/12/20 15:50:53;;;;;;;15.68;9.93;;;7.70;99.90;;;;;;4889294;29;20044;-73
2022/12/20 15:53:26;;;;;;;15.90;9.18;;;7.70;99.90;;;;;;4888728;29;20263;-74
2022/12/20 15:55:55;;;;;;;16.80;10.45;;;7.70;99.90;;;;;;4889074;29;20176;-74
2022/12/20 15:58:22;;;;;;;18.23;10.95;;;7.70;99.90;;;;;;4888463;29;20037;-74
2022/12/20 16:00:48;;;;;;;23.27;12.82;;;7.60;99.90;;;;;;4888803;29;20033;-74
2022/12/20 16:03:20;;;;;;;23.27;14.15;;;7.60;99.90;;;;;;4901505;29;20045;-74
2022/12/20 16:05:47;;;;;;;19.10;10.35;;;7.60;99.90;;;;;;4907272;29;20251;-75
2022/12/20 16:08:15;;;;;;;16.85;10.32;;;7.60;99.90;;;;;;4906684;29;20120;-74
2022/12/20 16:10:41;;;;;;;13.05;9.10;;;7.50;99.90;;;;;;4894257;29;20048;-75
2022/12/20 16:13:19;;;;;;;17.15;10.73;;;7.60;99.90;;;;;;4888947;29;20049;-74
2022/12/20 16:15:45;;;;;;;17.40;10.90;;;7.60;99.90;;;;;;4888817;29;20035;-74
2022/12/20 16:18:11;;;;;;;22.58;13.75;;;7.60;99.90;;;;;;4888085;29;20261;-76
2022/12/20 16:20:37;;;;;;;19.77;11.05;;;7.60;99.90;;;;;;4872108;29;20362;-74
2022/12/20 16:23:03;;;;;;;18.80;10.68;;;7.60;99.90;;;;;;4888174;29;20077;-77
2022/12/20 16:25:35;;;;;;;20.00;12.20;;;7.50;99.90;;;;;;4888040;29;20062;-75
2022/12/20 16:28:01;;;;;;;14.10;9.55;;;7.50;99.90;;;;;;4888564;29;20064;-76
2022/12/20 16:30:27;;;;;;;16.33;9.85;;;7.60;99.90;;;;;;4888088;29;20052;-77
2022/12/20 16:32:53;;;;;;;14.02;9.48;;;7.60;99.90;;;;;;4891293;29;20024;-76
2022/12/20 16:35:26;;;;;;;14.98;9.38;;;7.60;99.90;;;;;;4889856;29;20203;-77
2022/12/20 16:37:56;;;;;;;14.65;8.70;;;7.60;99.90;;;;;;4890816;29;20092;-75
2022/12/20 16:40:28;;;;;;;14.60;9.02;;;7.60;99.90;;;;;;4906692;29;20306;-76
2022/12/20 16:42:57;;;;;;;16.13;9.52;;;7.60;99.90;;;;;;4906983;29;20068;-75
2022/12/20 16:45:28;;;;;;;17.58;9.88;;;7.60;99.90;;;;;;4889717;29;20036;-76
2022/12/20 16:47:54;;;;;;;14.32;8.95;;;7.70;99.90;;;;;;4906581;29;20028;-76
2022/12/20 16:50:23;;;;;;;18.20;8.50;;;7.60;99.90;;;;;;4906691;29;20116;-75
2022/12/20 16:52:49;;;;;;;;;;;7.70;99.90;;;;;;4907548;29;20322;-75
2022/12/20 16:55:33;;;;;;;13.93;8.48;;;7.70;99.90;;;;;;4889877;29;20126;-77
2022/12/20 16:57:59;;;;;;;15.45;10.10;;;7.70;99.90;;;;;;4907145;29;20024;-74
2022/12/20 17:00:28;;;;;;;22.30;12.18;;;7.60;99.90;;;;;;4906111;29;20067;-73
2022/12/20 17:02:54;;;;;;;;;;;7.70;99.90;;;;;;4890651;29;20053;-76
2022/12/20 17:05:23;;;;;;;16.65;10.00;;;7.70;99.90;;;;;;4906104;29;19907;-74
2022/12/20 17:07:48;;;;;;;;;;;7.70;99.90;;;;;;4907525;29;20319;-75
2022/12/20 17:10:16;;;;;;;16.30;9.50;;;7.80;99.90;;;;;;4896401;29;19918;-73
2022/12/20 17:12:42;;;;;;;13.70;8.18;;;7.80;99.90;;;;;;4871649;29;20049;-73
2022/12/20 17:15:30;;;;;;;12.52;8.45;;;7.90;99.90;;;;;;4887402;29;20056;-74
2022/12/20 17:18:05;;;;;;;17.05;10.15;;;7.80;99.90;;;;;;4887879;29;20033;-75
2022/12/20 17:20:31;;;;;;;14.05;8.75;;;7.80;99.90;;;;;;4887431;29;20037;-72
2022/12/20 17:22:56;;;;;;;15.90;9.55;;;7.80;99.90;;;;;;4888045;29;20318;-76
2022/12/20 17:25:34;;;;;;;14.57;8.75;;;7.80;99.90;;;;;;4871089;29;20039;-73
2022/12/20 17:28:00;;;;;;;12.77;8.33;;;7.80;99.90;;;;;;4887731;29;20044;-73
2022/12/20 17:30:26;;;;;;;15.10;8.63;;;7.80;99.90;;;;;;4887241;29;20036;-74
2022/12/20 17:32:52;;;;;;;15.18;7.68;;;7.80;99.90;;;;;;4890342;29;20311;-72
2022/12/20 17:35:30;;;;;;;13.52;7.90;;;7.90;99.90;;;;;;4905688;29;20227;-73
2022/12/20 17:37:56;;;;;;;12.40;7.95;;;7.90;99.90;;;;;;4906552;29;20080;-73
2022/12/20 17:40:28;;;;;;;14.48;8.45;;;8.00;99.90;;;;;;4889286;29;20035;-73
2022/12/20 17:42:54;;;;;;;11.57;7.38;;;8.10;99.90;;;;;;4891833;29;20187;-73
2022/12/20 17:45:26;;;;;;;13.88;7.55;;;8.10;99.90;;;;;;4886929;29;20092;-73
2022/12/20 17:47:53;;;;;;;14.10;8.02;;;8.10;99.90;;;;;;4888076;29;20056;-73
2022/12/20 17:50:19;;;;;;;13.80;8.35;;;8.10;99.90;;;;;;4887019;29;20033;-73
2022/12/20 17:52:46;;;;;;;12.00;8.02;;;8.10;99.90;;;;;;4887521;29;20044;-74
2022/12/20 17:55:17;;;;;;;17.30;9.23;;;8.10;99.90;;;;;;4870359;29;20077;-73
2022/12/20 17:57:43;;;;;;;13.00;8.57;;;8.10;99.90;;;;;;4887244;29;20045;-73
2022/12/20 18:00:17;;;;;;;12.90;7.85;;;8.10;99.90;;;;;;4871145;29;20088;-75
2022/12/20 18:02:43;;;;;;;13.68;7.93;;;8.10;99.90;;;;;;4843767;29;20041;-75
2022/12/20 18:05:12;;;;;;;13.02;8.35;;;8.10;99.90;;;;;;4850709;29;20227;-74
2022/12/20 18:07:38;;;;;;;14.05;7.47;;;8.10;99.90;;;;;;4834042;29;20219;-74
2022/12/20 18:10:04;;;;;;;13.30;7.68;;;8.10;99.90;;;;;;4858421;29;20041;-72
2022/12/20 18:12:30;;;;;;;13.25;7.88;;;8.10;99.90;;;;;;4870336;29;20044;-74
2022/12/20 18:14:55;;;;;;;13.73;8.23;;;8.10;99.90;;;;;;4872590;29;20052;-73
2022/12/20 18:17:21;;;;;;;13.50;7.28;;;8.10;99.90;;;;;;4854949;29;20044;-73
2022/12/20 18:19:47;;;;;;;13.88;7.75;;;8.10;99.90;;;;;;4855687;29;20044;-75
2022/12/20 18:22:13;;;;;;;13.80;8.23;;;8.10;99.90;;;;;;4871434;29;20338;-73
2022/12/20 18:24:39;;;;;;;15.82;9.45;;;8.10;99.90;;;;;;4872070;29;20312;-76
2022/12/20 18:27:05;;;;;;;17.60;9.88;;;8.10;99.90;;;;;;4855767;29;20061;-75
2022/12/20 18:29:31;;;;;;;20.55;12.75;;;8.10;99.90;;;;;;4871373;29;20061;-75
2022/12/20 18:31:57;;;;;;;15.15;8.80;;;8.10;99.90;;;;;;4871976;29;20033;-74
2022/12/20 18:34:22;;;;;;;12.40;7.55;;;8.20;99.90;;;;;;4868782;29;20052;-75
2022/12/20 18:36:48;;;;;;;14.32;8.88;;;8.20;99.90;;;;;;4876575;29;20029;-74
2022/12/20 18:39:14;;;;;;;12.55;7.63;;;8.20;99.90;;;;;;4871477;29;20022;-74
2022/12/20 18:41:41;;;;;;;13.10;7.47;;;8.20;99.90;;;;;;4871838;29;20045;-76
2022/12/20 18:44:09;;;;;;;13.25;7.38;;;8.20;99.90;;;;;;4871856;29;20353;-75
2022/12/20 18:46:39;;;;;;;17.60;8.80;;;8.20;99.90;;;;;;4870862;29;20041;-74
2022/12/20 18:49:05;;;;;;;19.23;11.13;;;8.10;99.90;;;;;;4871814;29;20227;-74
2022/12/20 18:51:35;;;;;;;13.63;8.15;;;8.20;99.90;;;;;;4871411;29;20312;-75
2022/12/20 18:54:01;;;;;;;16.13;9.00;;;8.20;99.90;;;;;;4871701;29;20029;-74
2022/12/20 18:56:33;;;;;;;17.45;10.40;;;8.20;99.90;;;;;;4871446;29;20025;-74
2022/12/20 18:59:06;;;;;;;15.90;9.13;;;8.20;99.90;;;;;;4871703;29;20056;-74
2022/12/20 19:01:34;;;;;;;13.32;8.38;;;8.20;99.90;;;;;;4871431;29;20069;-74
2022/12/20 19:04:02;;;;;;;14.65;8.82;;;8.20;99.90;;;;;;4871644;29;20346;-74
2022/12/20 19:06:28;;;;;;;13.98;8.00;;;8.20;99.90;;;;;;4870954;29;20068;-74
2022/12/20 19:08:54;;;;;;;15.35;7.75;;;8.30;99.90;;;;;;4871682;29;20036;-76
2022/12/20 19:11:23;;;;;;;13.30;7.28;;;8.30;99.90;;;;;;4870865;29;20215;-74
2022/12/20 19:13:49;;;;;;;13.38;7.78;;;8.30;99.90;;;;;;4871616;29;20096;-73